createdAt,value
2023-04-09T00:01:03.989Z,13.88
2023-04-09T00:03:30.902Z,13.57
2023-04-09T00:05:57.646Z,11.10
2023-04-09T00:08:24.238Z,12.38
2023-04-09T00:10:54.149Z,11.00
2023-04-09T00:13:31.914Z,11.88
2023-04-09T00:16:05.334Z,9.23
2023-04-09T00:18:33.287Z,9.88
2023-04-09T00:20:59.974Z,13.45
2023-04-09T00:23:26.632Z,15.00
2023-04-09T00:25:55.066Z,9.05
2023-04-09T00:28:21.724Z,17.70
2023-04-09T00:30:48.384Z,19.23
2023-04-09T00:33:15.460Z,12.50
2023-04-09T00:35:42.012Z,12.60
2023-04-09T00:38:08.634Z,9.88
2023-04-09T00:40:35.198Z,12.57
2023-04-09T00:43:02.524Z,16.85
2023-04-09T00:45:29.168Z,10.38
2023-04-09T00:47:55.987Z,10.70
2023-04-09T00:50:22.632Z,9.80
2023-04-09T00:52:49.369Z,12.50
2023-04-09T00:55:16.789Z,15.25
2023-04-09T00:57:43.492Z,12.50
2023-04-09T01:00:11.381Z,12.15
2023-04-09T01:02:38.399Z,10.48
2023-04-09T01:05:05.550Z,12.70
2023-04-09T01:07:32.163Z,12.95
2023-04-09T01:10:10.265Z,11.40
2023-04-09T01:12:43.965Z,10.18
2023-04-09T01:15:13.221Z,9.85
2023-04-09T01:17:39.875Z,8.57
2023-04-09T01:20:10.453Z,11.55
2023-04-09T01:22:42.248Z,17.58
2023-04-09T01:25:17.806Z,15.75
2023-04-09T01:27:56.197Z,14.30
2023-04-09T01:30:23.023Z,16.80
2023-04-09T01:32:50.307Z,12.05
2023-04-09T01:35:17.811Z,15.13
2023-04-09T01:37:44.573Z,13.20
2023-04-09T01:40:11.368Z,8.07
2023-04-09T01:42:38.042Z,11.07
2023-04-09T01:45:05.982Z,13.00
2023-04-09T01:47:33.068Z,5.80
2023-04-09T01:50:00.217Z,13.38
2023-04-09T01:52:27.094Z,11.23
2023-04-09T01:54:53.635Z,9.65
2023-04-09T01:57:20.290Z,7.50
2023-04-09T01:59:46.929Z,10.45
2023-04-09T02:02:18.153Z,13.05
2023-04-09T02:04:48.129Z,9.43
2023-04-09T02:07:23.591Z,9.35
2023-04-09T02:09:51.826Z,12.75
2023-04-09T02:12:19.752Z,10.10
2023-04-09T02:14:47.041Z,11.20
2023-04-09T02:17:13.667Z,11.90
2023-04-09T02:19:40.753Z,14.63
2023-04-09T02:22:07.349Z,10.75
2023-04-09T02:24:34.024Z,10.50
2023-04-09T02:27:00.684Z,15.00
2023-04-09T02:29:27.330Z,9.95
2023-04-09T02:31:54.024Z,16.08
2023-04-09T02:34:20.735Z,13.40
2023-04-09T02:36:48.293Z,20.35
2023-04-09T02:39:14.900Z,12.70
2023-04-09T02:41:41.470Z,13.48
2023-04-09T02:44:07.989Z,11.00
2023-04-09T02:46:34.632Z,13.50
2023-04-09T02:49:01.154Z,15.98
2023-04-09T02:51:27.896Z,18.98
2023-04-09T02:53:54.462Z,12.32
2023-04-09T02:56:21.028Z,11.93
2023-04-09T02:58:49.522Z,19.77
2023-04-09T03:01:16.242Z,18.08
2023-04-09T03:03:43.144Z,18.10
2023-04-09T03:06:09.925Z,16.75
2023-04-09T03:08:36.698Z,15.02
2023-04-09T03:11:03.336Z,19.40
2023-04-09T03:13:29.994Z,10.55
2023-04-09T03:15:56.572Z,17.23
2023-04-09T03:18:23.170Z,21.92
2023-04-09T03:20:49.776Z,20.85
2023-04-09T03:23:16.411Z,23.13
2023-04-09T03:25:46.245Z,16.80
2023-04-09T03:28:16.332Z,26.77
2023-04-09T03:30:50.620Z,21.05
2023-04-09T03:33:19.585Z,19.52
2023-04-09T03:35:51.290Z,19.33
2023-04-09T03:38:24.092Z,23.25
2023-04-09T03:40:51.452Z,21.48
2023-04-09T03:43:18.021Z,25.35
2023-04-09T03:45:50.110Z,24.92
2023-04-09T03:48:25.596Z,20.88
2023-04-09T03:50:53.748Z,22.60
2023-04-09T03:53:28.850Z,28.75
2023-04-09T03:56:02.626Z,22.80
2023-04-09T03:58:30.028Z,29.95
2023-04-09T04:00:57.695Z,24.05
2023-04-09T04:03:36.948Z,33.17
2023-04-09T04:06:09.844Z,24.90
2023-04-09T04:08:45.340Z,24.60
2023-04-09T04:11:12.420Z,24.15
2023-04-09T04:13:39.651Z,30.77
2023-04-09T04:16:09.312Z,28.85
2023-04-09T04:18:37.720Z,31.80
2023-04-09T04:21:04.473Z,28.77
2023-04-09T04:23:34.088Z,26.08
2023-04-09T04:26:27.138Z,33.10
2023-04-09T04:28:53.967Z,32.78
2023-04-09T04:31:46.817Z,37.20
2023-04-09T04:34:16.152Z,30.48
2023-04-09T04:36:46.796Z,32.97
2023-04-09T04:39:13.565Z,31.67
2023-04-09T04:41:51.073Z,33.47
2023-04-09T04:44:23.875Z,38.88
2023-04-09T04:46:56.703Z,32.55
2023-04-09T04:49:23.507Z,35.00
2023-04-09T04:51:51.053Z,27.13
2023-04-09T04:54:17.734Z,25.85
2023-04-09T04:56:53.989Z,32.20
2023-04-09T04:59:49.875Z,34.20
2023-04-09T05:02:17.745Z,28.08
2023-04-09T05:05:03.192Z,31.40
2023-04-09T05:07:42.035Z,33.90
2023-04-09T05:10:09.498Z,36.25
2023-04-09T05:12:40.007Z,28.40
2023-04-09T05:15:08.045Z,33.13
2023-04-09T05:17:36.803Z,31.42
2023-04-09T05:20:04.333Z,34.30
2023-04-09T05:22:39.351Z,30.60
2023-04-09T05:25:06.412Z,32.10
2023-04-09T05:27:37.145Z,35.90
2023-04-09T05:30:04.840Z,34.38
2023-04-09T05:32:31.938Z,43.47
2023-04-09T05:34:59.153Z,31.30
2023-04-09T05:37:26.864Z,34.63
2023-04-09T05:39:54.077Z,36.00
2023-04-09T05:42:20.772Z,30.40
2023-04-09T05:45:00.969Z,35.00
2023-04-09T05:47:28.749Z,34.95
2023-04-09T05:50:11.865Z,30.33
2023-04-09T05:52:38.560Z,33.38
2023-04-09T05:55:06.600Z,34.85
2023-04-09T05:57:43.729Z,38.33
2023-04-09T06:00:11.488Z,37.13
2023-04-09T06:02:43.675Z,35.17
2023-04-09T06:05:10.434Z,40.97
2023-04-09T06:07:37.096Z,31.80
2023-04-09T06:10:03.741Z,31.75
2023-04-09T06:12:30.377Z,39.38
2023-04-09T06:14:56.952Z,37.22
2023-04-09T06:17:23.567Z,37.50
2023-04-09T06:19:50.193Z,37.10
2023-04-09T06:22:18.967Z,31.88
2023-04-09T06:24:45.688Z,35.03
2023-04-09T06:27:12.275Z,38.35
2023-04-09T06:29:38.815Z,33.20
2023-04-09T06:32:05.854Z,38.22
2023-04-09T06:34:32.565Z,42.10
2023-04-09T06:36:59.639Z,33.97
2023-04-09T06:39:26.283Z,33.75
2023-04-09T06:41:52.809Z,38.72
2023-04-09T06:44:36.514Z,43.92
2023-04-09T06:47:03.128Z,41.65
2023-04-09T06:49:29.657Z,37.95
2023-04-09T06:51:56.315Z,37.88
2023-04-09T06:54:25.004Z,44.78
2023-04-09T06:56:51.978Z,40.38
2023-04-09T06:59:18.679Z,41.33
2023-04-09T07:01:45.929Z,48.10
2023-04-09T07:04:12.868Z,39.95
2023-04-09T07:06:40.950Z,53.40
2023-04-09T07:09:07.589Z,45.95
2023-04-09T07:11:35.370Z,40.65
2023-04-09T07:14:04.982Z,44.58
2023-04-09T07:16:33.984Z,46.67
2023-04-09T07:19:00.644Z,42.90
2023-04-09T07:21:28.369Z,40.00
2023-04-09T07:23:56.435Z,37.72
2023-04-09T07:26:23.365Z,49.42
2023-04-09T07:28:49.906Z,39.47
2023-04-09T07:31:16.562Z,49.08
2023-04-09T07:33:43.204Z,39.78
2023-04-09T07:36:09.826Z,40.88
2023-04-09T07:38:36.373Z,34.80
2023-04-09T07:41:02.980Z,40.63
2023-04-09T07:43:29.520Z,44.03
2023-04-09T07:45:56.095Z,37.58
2023-04-09T07:48:22.702Z,44.72
2023-04-09T07:50:49.302Z,37.63
2023-04-09T07:53:16.551Z,40.53
2023-04-09T07:55:43.142Z,37.83
2023-04-09T07:58:09.667Z,44.75
2023-04-09T08:00:36.428Z,39.67
2023-04-09T08:03:03.973Z,37.05
2023-04-09T08:05:30.873Z,35.80
2023-04-09T08:07:57.470Z,41.50
2023-04-09T08:10:24.153Z,40.20
2023-04-09T08:12:50.717Z,41.60
2023-04-09T08:15:17.599Z,39.08
2023-04-09T08:17:44.332Z,42.00
2023-04-09T08:20:11.359Z,48.50
2023-04-09T08:22:37.896Z,43.17
2023-04-09T08:25:04.621Z,34.65
2023-04-09T08:27:31.450Z,37.42
2023-04-09T08:29:57.967Z,41.03
2023-04-09T08:32:27.492Z,39.00
2023-04-09T08:34:54.066Z,36.63
2023-04-09T08:37:31.442Z,42.00
2023-04-09T08:39:58.187Z,37.42
2023-04-09T08:42:25.311Z,42.00
2023-04-09T08:48:46.011Z,38.08
2023-04-09T08:51:13.294Z,37.33
2023-04-09T08:53:40.654Z,36.75
2023-04-09T08:56:07.206Z,41.47
2023-04-09T08:58:34.492Z,36.55
2023-04-09T09:01:01.830Z,38.05
2023-04-09T09:03:28.658Z,39.05
2023-04-09T09:05:55.932Z,45.50
2023-04-09T09:08:23.945Z,43.50
2023-04-09T09:10:50.688Z,39.33
2023-04-09T09:13:18.542Z,43.17
2023-04-09T09:15:46.361Z,39.25
2023-04-09T09:18:12.908Z,41.13
2023-04-09T09:20:40.784Z,38.67
2023-04-09T09:23:08.811Z,54.58
2023-04-09T09:25:39.325Z,43.65
2023-04-09T09:28:10.303Z,32.83
2023-04-09T09:30:38.682Z,40.30
2023-04-09T09:33:06.894Z,49.88
2023-04-09T09:35:55.546Z,39.92
2023-04-09T09:38:22.144Z,35.50
2023-04-09T09:40:49.337Z,36.78
2023-04-09T09:43:16.139Z,51.65
2023-04-09T09:45:44.231Z,51.33
2023-04-09T09:48:15.882Z,39.22
2023-04-09T09:50:43.032Z,39.70
2023-04-09T09:53:14.289Z,35.17
2023-04-09T09:55:41.839Z,35.42
2023-04-09T09:58:12.517Z,32.75
2023-04-09T10:00:41.642Z,41.90
2023-04-09T10:03:16.097Z,39.63
2023-04-09T10:05:43.314Z,35.17
2023-04-09T10:08:11.294Z,34.13
2023-04-09T10:10:39.363Z,35.78
2023-04-09T10:13:07.957Z,39.83
2023-04-09T10:15:34.631Z,37.40
2023-04-09T10:18:01.957Z,41.03
2023-04-09T10:20:49.247Z,41.88
2023-04-09T10:23:19.378Z,39.10
2023-04-09T10:25:46.506Z,39.03
2023-04-09T10:28:19.266Z,42.85
2023-04-09T10:30:55.102Z,39.72
2023-04-09T10:33:28.948Z,41.60
2023-04-09T10:36:01.513Z,44.47
2023-04-09T10:38:38.607Z,47.75
2023-04-09T10:41:10.616Z,52.97
2023-04-09T10:43:37.325Z,47.03
2023-04-09T10:46:08.227Z,50.35
2023-04-09T10:48:35.068Z,47.22
2023-04-09T10:51:07.304Z,49.08
2023-04-09T10:53:33.925Z,44.45
2023-04-09T10:56:01.369Z,43.80
2023-04-09T10:58:27.929Z,46.15
2023-04-09T11:00:54.758Z,44.90
2023-04-09T11:03:25.401Z,43.40
2023-04-09T11:05:54.001Z,56.00
2023-04-09T11:08:22.202Z,46.88
2023-04-09T11:10:51.361Z,44.55
2023-04-09T11:13:20.756Z,40.13
2023-04-09T11:15:47.660Z,41.92
2023-04-09T11:18:15.471Z,45.97
2023-04-09T11:20:42.079Z,39.60
2023-04-09T11:23:08.838Z,42.97
2023-04-09T11:25:35.700Z,39.15
2023-04-09T11:28:02.919Z,36.42
2023-04-09T11:30:29.629Z,41.05
2023-04-09T11:32:56.344Z,36.38
2023-04-09T11:35:23.134Z,34.83
2023-04-09T11:37:50.411Z,38.78
2023-04-09T11:40:20.296Z,42.00
2023-04-09T11:42:48.790Z,42.03
2023-04-09T11:45:15.833Z,39.13
2023-04-09T11:47:43.252Z,38.75
2023-04-09T11:50:11.089Z,39.35
2023-04-09T11:52:37.896Z,33.42
2023-04-09T11:55:07.924Z,36.22
2023-04-09T11:57:41.364Z,40.53
2023-04-09T12:00:08.948Z,32.47
2023-04-09T12:02:37.602Z,30.27
2023-04-09T12:05:04.666Z,35.50
2023-04-09T12:07:34.449Z,26.98
2023-04-09T12:10:05.414Z,32.70
2023-04-09T12:12:32.071Z,40.50
2023-04-09T12:14:59.333Z,34.60
2023-04-09T12:17:26.413Z,28.00
2023-04-09T12:19:53.002Z,31.17
2023-04-09T12:22:19.505Z,32.35
2023-04-09T12:24:46.049Z,30.17
2023-04-09T12:27:12.579Z,30.80
2023-04-09T12:29:39.132Z,33.63
2023-04-09T12:32:05.913Z,37.08
2023-04-09T12:34:32.667Z,28.08
2023-04-09T12:36:59.407Z,31.55
2023-04-09T12:39:26.233Z,37.08
2023-04-09T12:41:54.419Z,35.33
2023-04-09T12:44:21.081Z,33.60
2023-04-09T12:46:47.870Z,38.03
2023-04-09T12:49:14.579Z,34.58
2023-04-09T12:51:41.710Z,41.75
2023-04-09T12:54:08.366Z,44.72
2023-04-09T12:56:34.850Z,43.80
2023-04-09T12:59:01.762Z,43.47
2023-04-09T13:01:28.537Z,45.60
2023-04-09T13:03:55.441Z,40.35
2023-04-09T13:06:22.991Z,35.95
2023-04-09T13:08:49.535Z,43.35
2023-04-09T13:11:16.112Z,47.78
2023-04-09T13:13:42.750Z,36.75
2023-04-09T13:16:09.389Z,38.05
2023-04-09T13:18:36.210Z,48.75
2023-04-09T13:21:02.852Z,47.58
2023-04-09T13:23:29.455Z,40.80
2023-04-09T13:25:56.219Z,41.10
2023-04-09T13:28:22.787Z,42.35
2023-04-09T13:30:49.461Z,44.83
2023-04-09T13:33:16.418Z,42.17
2023-04-09T13:35:44.673Z,42.42
2023-04-09T13:38:11.283Z,47.08
2023-04-09T13:40:37.869Z,41.80
2023-04-09T13:43:04.497Z,40.28
2023-04-09T13:45:31.023Z,39.08
2023-04-09T13:47:57.767Z,38.22
2023-04-09T13:50:24.357Z,36.13
2023-04-09T13:52:51.023Z,37.05
2023-04-09T13:55:17.560Z,38.08
2023-04-09T13:57:44.298Z,43.80
2023-04-09T14:00:11.189Z,39.38
2023-04-09T14:02:37.969Z,36.00
2023-04-09T14:05:08.317Z,40.63
2023-04-09T14:07:34.907Z,41.55
2023-04-09T14:10:01.957Z,49.65
2023-04-09T14:12:28.560Z,43.40
2023-04-09T14:14:55.127Z,41.25
2023-04-09T14:17:21.739Z,46.22
2023-04-09T14:19:48.336Z,45.83
2023-04-09T14:22:14.831Z,47.72
2023-04-09T14:24:44.522Z,54.63
2023-04-09T14:27:11.155Z,48.63
2023-04-09T14:29:38.058Z,49.33
2023-04-09T14:32:05.397Z,50.42
2023-04-09T14:34:32.523Z,49.08
2023-04-09T14:36:59.612Z,46.03
2023-04-09T14:39:26.219Z,47.35
2023-04-09T14:41:54.763Z,49.25
2023-04-09T14:44:21.523Z,53.30
2023-04-09T14:46:48.163Z,53.20
2023-04-09T14:49:14.818Z,47.38
2023-04-09T14:51:50.177Z,54.40
2023-04-09T14:54:16.846Z,55.22
2023-04-09T14:56:43.446Z,44.35
2023-04-09T14:59:09.985Z,50.63
2023-04-09T15:01:36.612Z,50.17
2023-04-09T15:04:03.378Z,57.85
2023-04-09T15:06:32.296Z,55.70
2023-04-09T15:08:58.856Z,56.58
2023-04-09T15:11:25.433Z,45.20
2023-04-09T15:13:52.294Z,52.55
2023-04-09T15:16:23.160Z,49.10
2023-04-09T15:18:52.182Z,58.78
2023-04-09T15:21:19.332Z,65.90
2023-04-09T15:23:46.304Z,50.88
2023-04-09T15:26:12.853Z,44.17
2023-04-09T15:28:39.424Z,50.08
2023-04-09T15:31:06.132Z,41.75
2023-04-09T15:33:32.670Z,47.40
2023-04-09T15:35:59.387Z,50.63
2023-04-09T15:38:26.135Z,45.28
2023-04-09T15:40:52.904Z,40.72
2023-04-09T15:43:19.432Z,38.50
2023-04-09T15:45:48.433Z,37.40
2023-04-09T15:48:15.081Z,37.40
2023-04-09T15:50:41.571Z,40.17
2023-04-09T15:53:08.190Z,39.95
2023-04-09T15:55:34.701Z,39.08
2023-04-09T15:58:01.300Z,37.13
2023-04-09T16:00:28.173Z,31.33
2023-04-09T16:02:55.846Z,36.05
2023-04-09T16:05:22.887Z,33.75
2023-04-09T16:07:53.227Z,34.28
2023-04-09T16:10:19.871Z,34.55
2023-04-09T16:12:46.723Z,38.53
2023-04-09T16:15:13.305Z,37.65
2023-04-09T16:17:41.261Z,30.90
2023-04-09T16:20:08.504Z,42.92
2023-04-09T16:22:35.347Z,35.65
2023-04-09T16:25:01.950Z,30.80
2023-04-09T16:27:28.508Z,30.27
2023-04-09T16:29:55.398Z,28.05
2023-04-09T16:32:22.278Z,31.25
2023-04-09T16:34:48.970Z,35.88
2023-04-09T16:37:15.731Z,34.95
2023-04-09T16:39:42.886Z,39.85
2023-04-09T16:42:11.148Z,34.40
2023-04-09T16:44:37.848Z,31.73
2023-04-09T16:47:05.326Z,26.45
2023-04-09T16:49:31.962Z,31.15
2023-04-09T16:51:58.764Z,36.28
2023-04-09T16:54:25.608Z,33.42
2023-04-09T16:56:52.360Z,29.98
2023-04-09T16:59:21.027Z,33.97
2023-04-09T17:01:49.185Z,32.03
2023-04-09T17:04:16.392Z,29.25
2023-04-09T17:06:43.268Z,31.67
2023-04-09T17:09:09.862Z,35.10
2023-04-09T17:11:38.060Z,30.95
2023-04-09T17:14:04.913Z,31.45
2023-04-09T17:16:31.700Z,37.03
2023-04-09T17:18:58.302Z,34.80
2023-04-09T17:21:25.009Z,30.48
2023-04-09T17:23:51.727Z,38.13
2023-04-09T17:26:19.007Z,33.97
2023-04-09T17:28:47.921Z,39.00
2023-04-09T17:31:15.960Z,31.50
2023-04-09T17:33:44.628Z,42.80
2023-04-09T17:36:11.446Z,41.45
2023-04-09T17:38:37.977Z,36.03
2023-04-09T17:41:06.385Z,46.72
2023-04-09T17:43:34.407Z,35.30
2023-04-09T17:46:00.936Z,34.35
2023-04-09T17:48:29.186Z,48.53
2023-04-09T17:50:57.755Z,39.58
2023-04-09T17:53:24.362Z,40.03
2023-04-09T17:55:52.044Z,41.13
2023-04-09T17:58:19.001Z,33.58
2023-04-09T18:00:45.742Z,45.50
2023-04-09T18:03:12.530Z,43.58
2023-04-09T18:05:39.606Z,39.45
2023-04-09T18:08:07.329Z,41.03
2023-04-09T18:10:36.689Z,38.35
2023-04-09T18:13:03.721Z,38.65
2023-04-09T18:15:33.849Z,49.22
2023-04-09T18:18:00.797Z,39.85
2023-04-09T18:20:27.512Z,41.38
2023-04-09T18:22:55.509Z,45.10
2023-04-09T18:25:27.583Z,41.00
2023-04-09T18:27:54.682Z,44.47
2023-04-09T18:30:21.339Z,53.22
2023-04-09T18:32:51.734Z,51.63
2023-04-09T18:35:18.677Z,55.97
2023-04-09T18:37:45.793Z,42.00
2023-04-09T18:40:13.949Z,54.72
2023-04-09T18:42:40.820Z,50.10
2023-04-09T18:45:08.108Z,49.63
2023-04-09T18:47:34.785Z,57.17
2023-04-09T18:50:02.479Z,57.17
2023-04-09T18:52:29.089Z,50.63
2023-04-09T18:54:55.776Z,60.78
2023-04-09T18:57:22.342Z,54.20
2023-04-09T18:59:48.921Z,51.05
2023-04-09T19:02:15.756Z,55.65
2023-04-09T19:04:42.673Z,50.22
2023-04-09T19:07:09.426Z,53.45
2023-04-09T19:09:37.228Z,50.28
2023-04-09T19:12:03.939Z,55.55
2023-04-09T19:14:30.929Z,54.17
2023-04-09T19:16:59.620Z,57.72
2023-04-09T19:19:26.328Z,62.28
2023-04-09T19:21:52.925Z,60.00
2023-04-09T19:24:22.023Z,58.60
2023-04-09T19:26:50.864Z,72.32
2023-04-09T19:29:17.647Z,63.90
2023-04-09T19:31:44.535Z,58.90
2023-04-09T19:34:11.436Z,66.35
2023-04-09T19:36:38.179Z,59.50
2023-04-09T19:39:05.961Z,65.15
2023-04-09T19:41:32.650Z,67.15
2023-04-09T19:44:01.215Z,70.85
2023-04-09T19:46:27.808Z,70.68
2023-04-09T19:48:54.753Z,75.50
2023-04-09T19:51:22.037Z,59.53
2023-04-09T19:53:49.353Z,57.90
2023-04-09T19:56:16.120Z,58.70
2023-04-09T19:58:43.414Z,65.70
2023-04-09T20:01:10.121Z,68.50
2023-04-09T20:03:36.857Z,93.72
2023-04-09T20:06:08.255Z,71.70
2023-04-09T20:11:01.289Z,67.68
2023-04-09T20:13:27.922Z,60.33
2023-04-09T20:15:54.772Z,64.47
2023-04-09T20:18:21.380Z,62.00
2023-04-09T20:20:48.092Z,64.72
2023-04-09T20:23:14.603Z,71.35
2023-04-09T20:25:41.215Z,60.28
2023-04-09T20:28:09.864Z,69.50
2023-04-09T20:30:37.060Z,61.38
2023-04-09T20:33:03.647Z,62.65
2023-04-09T20:35:33.591Z,62.85
2023-04-09T20:38:00.332Z,75.72
2023-04-09T20:40:26.879Z,69.65
2023-04-09T20:42:53.420Z,62.40
2023-04-09T20:45:20.904Z,63.85
2023-04-09T20:47:47.841Z,66.47
2023-04-09T20:50:14.585Z,60.10
2023-04-09T20:52:41.238Z,67.63
2023-04-09T20:55:08.101Z,62.10
2023-04-09T20:57:34.700Z,58.25
2023-04-09T21:00:01.680Z,62.60
2023-04-09T21:02:28.496Z,61.95
2023-04-09T21:04:56.179Z,66.45
2023-04-09T21:07:22.832Z,64.95
2023-04-09T21:09:49.621Z,56.67
2023-04-09T21:12:16.215Z,56.20
2023-04-09T21:14:42.779Z,54.80
2023-04-09T21:17:09.881Z,52.35
2023-04-09T21:19:36.449Z,58.85
2023-04-09T21:22:03.070Z,61.38
2023-04-09T21:24:31.153Z,65.55
2023-04-09T21:26:58.810Z,60.45
2023-04-09T21:29:25.408Z,57.65
2023-04-09T21:31:52.084Z,57.13
2023-04-09T21:34:18.681Z,64.72
2023-04-09T21:36:48.583Z,65.90
2023-04-09T21:39:16.606Z,66.35
2023-04-09T21:41:44.479Z,60.35
2023-04-09T21:44:11.104Z,65.95
2023-04-09T21:46:40.539Z,62.45
2023-04-09T21:49:08.121Z,67.43
2023-04-09T21:51:37.367Z,64.15
2023-04-09T21:54:04.611Z,63.97
2023-04-09T21:56:32.325Z,62.90
2023-04-09T21:58:58.973Z,65.95
2023-04-09T22:01:29.545Z,75.72
2023-04-09T22:03:57.669Z,62.03
2023-04-09T22:06:28.761Z,62.08
2023-04-09T22:11:24.512Z,64.45
2023-04-09T22:13:51.055Z,57.88
2023-04-09T22:16:19.054Z,53.33
2023-04-09T22:18:48.376Z,60.30
2023-04-09T22:21:15.713Z,59.65
2023-04-09T22:23:42.442Z,67.78
2023-04-09T22:26:09.524Z,73.40
2023-04-09T22:28:36.174Z,68.03
2023-04-09T22:31:02.727Z,83.53
2023-04-09T22:33:29.386Z,62.05
2023-04-09T22:35:59.642Z,72.35
2023-04-09T22:38:26.606Z,63.43
2023-04-09T22:40:53.250Z,74.97
2023-04-09T22:43:20.038Z,78.47
2023-04-09T22:45:51.533Z,75.45
2023-04-09T22:48:18.496Z,64.45
2023-04-09T22:50:45.988Z,75.03
2023-04-09T22:53:12.878Z,73.20
2023-04-09T22:55:39.522Z,77.15
2023-04-09T22:58:06.095Z,79.03
2023-04-09T23:00:32.673Z,79.97
2023-04-09T23:02:59.337Z,64.90
2023-04-09T23:05:26.144Z,81.10
2023-04-09T23:07:52.752Z,67.60
2023-04-09T23:10:19.308Z,79.00
2023-04-09T23:12:45.888Z,90.85
2023-04-09T23:15:12.602Z,88.57
2023-04-09T23:17:39.363Z,78.35
2023-04-09T23:20:08.054Z,80.95
2023-04-09T23:22:34.817Z,72.25
2023-04-09T23:25:01.359Z,78.70
2023-04-09T23:27:28.872Z,83.93
2023-04-09T23:29:56.308Z,75.03
2023-04-09T23:32:23.067Z,76.47
2023-04-09T23:34:50.434Z,79.00
2023-04-09T23:37:17.308Z,87.53
2023-04-09T23:39:43.846Z,83.88
2023-04-09T23:42:10.515Z,80.05
2023-04-09T23:44:37.026Z,77.88
2023-04-09T23:47:05.922Z,90.30
2023-04-09T23:49:32.533Z,83.47
2023-04-09T23:51:59.155Z,81.47
2023-04-09T23:54:25.696Z,73.00
2023-04-09T23:56:52.309Z,83.88
2023-04-09T23:59:18.816Z,80.13
